Time;durP1;ratioP1;P1;durP2;ratioP2;P2;SDS_P1;SDS_P2;PMS_P1;PMS_P2;Temp;Humidity;BMP_temperature;BMP_pressure;BME280_temperature;BME280_humidity;BME280_pressure;Samples;Min_cycle;Max_cycle;Signal;HPM_P1;HPM_P2
2023/05/21 00:00:28;;;;;;;2.20;1.50;;;;;;;19.90;39.47;100252.45;104491;1258;73835;-66
2023/05/21 00:02:57;;;;;;;4.60;1.20;;;;;;;19.83;39.42;100249.38;104522;1260;70458;-66
2023/05/21 00:05:25;;;;;;;1.10;1.00;;;;;;;19.75;39.51;100253.66;104394;1257;75192;-66
2023/05/21 00:07:53;;;;;;;3.30;0.90;;;;;;;19.72;39.75;100249.25;104518;1253;60755;-66
2023/05/21 00:10:21;;;;;;;3.00;1.30;;;;;;;19.65;39.74;100249.02;104370;1257;61103;-66
2023/05/21 00:12:48;;;;;;;1.50;1.30;;;;;;;19.58;39.67;100247.95;104126;1258;347794;-66
2023/05/21 00:16:10;;;;;;;5.30;1.50;;;;;;;18.66;42.62;100248.75;101331;1292;601706;-64
2023/05/21 00:18:38;;;;;;;2.30;1.10;;;;;;;19.39;40.29;100248.89;103676;1273;60647;-65
2023/05/21 00:21:05;;;;;;;2.60;1.40;;;;;;;19.40;40.19;100252.02;103560;1285;61062;-65
2023/05/21 00:23:32;;;;;;;1.20;1.10;;;;;;;19.37;40.23;100253.33;103541;1269;73075;-65
2023/05/21 00:26:00;;;;;;;1.50;1.40;;;;;;;19.35;40.40;100254.72;103692;1269;69485;-64
2023/05/21 00:28:27;;;;;;;5.00;1.60;;;;;;;19.27;40.45;100254.00;103831;1279;72639;-65
2023/05/21 00:30:54;;;;;;;3.70;1.10;;;;;;;19.27;40.31;100252.42;103698;1263;161296;-66
2023/05/21 00:33:25;;;;;;;6.90;1.20;;;;;;;19.21;40.55;100256.40;104065;1272;60292;-66
2023/05/21 00:35:52;;;;;;;1.40;1.30;;;;;;;19.13;40.64;100259.23;103960;1270;72520;-65
2023/05/21 00:38:20;;;;;;;2.10;1.30;;;;;;;19.07;40.94;100254.67;105744;1264;70534;-66
2023/05/21 00:40:48;;;;;;;1.80;1.10;;;;;;;19.04;40.95;100254.16;107420;1258;73021;-65
2023/05/21 00:43:15;;;;;;;1.20;1.10;;;;;;;19.04;40.92;100257.35;104220;1262;60393;-65
2023/05/21 00:45:47;;;;;;;2.00;1.30;;;;;;;19.02;41.13;100252.86;104100;1264;62803;-65
2023/05/21 00:48:14;;;;;;;1.30;1.00;;;;;;;18.96;41.25;100250.11;104182;1262;75536;-65
2023/05/21 00:50:42;;;;;;;1.10;1.00;;;;;;;18.89;41.36;100254.99;104193;1261;70487;-64
2023/05/21 00:53:09;;;;;;;1.20;1.00;;;;;;;18.84;41.11;100254.10;104089;1264;73723;-64
2023/05/21 00:55:36;;;;;;;;;;;;;;;18.83;41.06;100249.71;104220;1258;60841;-65
2023/05/21 00:58:04;;;;;;;;;;;;;;;18.81;41.44;100248.06;104167;1258;59778;-64
2023/05/21 01:00:36;;;;;;;1.10;0.90;;;;;;;18.75;41.71;100240.45;104240;1263;74753;-64
2023/05/21 01:03:03;;;;;;;1.20;1.10;;;;;;;18.71;41.22;100236.66;104073;1266;69337;-65
2023/05/21 01:05:31;;;;;;;1.50;1.30;;;;;;;18.70;41.36;100236.39;104262;1257;72474;-65
2023/05/21 01:07:58;;;;;;;2.80;0.90;;;;;;;18.66;41.38;100240.16;104262;1261;60524;-65
2023/05/21 01:10:26;;;;;;;1.80;1.00;;;;;;;18.66;41.17;100238.42;104544;1260;60948;-65
2023/05/21 01:12:54;;;;;;;1.20;1.10;;;;;;;18.65;41.22;100237.79;107837;1256;73724;-66
2023/05/21 01:15:21;;;;;;;;;;;;;;;18.64;41.68;100244.92;107686;1255;70214;-66
2023/05/21 01:17:48;;;;;;;1.80;0.80;;;;;;;18.60;42.04;100241.66;107773;1257;73888;-66
2023/05/21 01:20:19;;;;;;;3.00;1.00;;;;;;;18.50;42.14;100237.69;107630;1257;60686;-66
2023/05/21 01:22:53;;;;;;;1.20;1.10;;;;;;;18.40;42.62;100237.29;105275;1257;60032;-62
2023/05/21 01:25:23;;;;;;;1.20;1.00;;;;;;;18.37;42.88;100228.63;104230;1264;73554;-65
2023/05/21 01:27:50;;;;;;;1.60;1.30;;;;;;;18.34;42.76;100224.59;104575;1257;70269;-65
2023/05/21 01:30:18;;;;;;;2.90;1.10;;;;;;;18.30;42.70;100225.02;104191;1265;72681;-66
2023/05/21 01:33:04;;;;;;;;;;;;;;;18.25;42.66;100223.86;104167;1260;59893;-65
2023/05/21 01:35:46;;;;;;;3.50;1.10;;;;;;;18.24;42.79;100221.86;104266;1268;60677;-65
2023/05/21 01:38:30;;;;;;;2.00;1.00;;;;;;;18.19;42.50;100221.63;104069;1271;72890;-65
2023/05/21 01:41:04;;;;;;;1.10;1.00;;;;;;;18.13;42.77;100220.77;104264;1270;69508;-65
2023/05/21 01:43:33;;;;;;;1.40;0.90;;;;;;;18.09;42.94;100224.59;104175;1262;73059;-65
2023/05/21 01:46:00;;;;;;;4.50;1.30;;;;;;;18.09;42.98;100228.50;104270;1261;60581;-67
2023/05/21 01:48:28;;;;;;;1.60;1.20;;;;;;;18.04;43.09;100225.23;104069;1261;60680;-64
2023/05/21 01:50:57;;;;;;;1.00;0.90;;;;;;;18.00;42.71;100221.61;104231;1262;74620;-64
2023/05/21 01:53:24;;;;;;;1.70;0.90;;;;;;;17.94;42.68;100226.48;104369;1270;72792;-64
2023/05/21 01:55:53;;;;;;;2.10;1.10;;;;;;;17.87;42.98;100226.88;104413;1255;72816;-65
2023/05/21 01:58:21;;;;;;;2.00;1.10;;;;;;;17.83;43.28;100222.48;104397;1254;60462;-65
2023/05/21 02:00:51;;;;;;;1.80;1.00;;;;;;;17.80;43.17;100225.55;104377;1261;60122;-66
2023/05/21 02:03:18;;;;;;;3.30;1.30;;;;;;;17.75;43.25;100220.53;104387;1254;75250;-65
2023/05/21 02:05:46;;;;;;;1.50;1.40;;;;;;;17.70;43.45;100220.45;104324;1270;69371;-65
2023/05/21 02:08:14;;;;;;;1.50;1.10;;;;;;;17.64;43.48;100219.79;104513;1267;73128;-66
2023/05/21 02:10:41;;;;;;;1.70;1.10;;;;;;;17.64;43.80;100222.64;104409;1258;61063;-64
2023/05/21 02:13:08;;;;;;;1.40;0.90;;;;;;;17.63;43.95;100222.33;104775;1270;61367;-64
2023/05/21 02:15:35;;;;;;;2.70;1.40;;;;;;;17.59;44.26;100225.61;104264;1258;73524;-64
2023/05/21 02:18:03;;;;;;;1.90;1.30;;;;;;;17.50;44.15;100227.90;104385;1261;70753;-64
2023/05/21 02:20:31;;;;;;;1.50;1.20;;;;;;;17.42;44.45;100219.91;104510;1257;73186;-64
2023/05/21 02:22:58;;;;;;;1.10;1.10;;;;;;;17.38;44.55;100221.60;104374;1260;60128;-65
2023/05/21 02:25:25;;;;;;;5.60;1.40;;;;;;;17.34;44.85;100219.88;104456;1257;60353;-65
2023/05/21 02:27:52;;;;;;;1.50;1.30;;;;;;;17.31;45.17;100220.96;104365;1270;72814;-65
2023/05/21 02:30:20;;;;;;;2.70;1.10;;;;;;;17.28;45.21;100221.11;104437;1254;69494;-64
2023/05/21 02:32:47;;;;;;;1.20;1.10;;;;;;;17.25;45.33;100214.44;104299;1270;71859;-65
2023/05/21 02:35:15;;;;;;;;;;;;;;;17.20;45.43;100217.55;104492;1262;60924;-65
2023/05/21 02:37:42;;;;;;;1.20;1.00;;;;;;;17.18;45.92;100220.73;104417;1259;60505;-65
2023/05/21 02:40:10;;;;;;;2.30;1.30;;;;;;;17.09;45.71;100223.17;104547;1254;73232;-65
2023/05/21 02:42:38;;;;;;;1.60;1.50;;;;;;;17.05;46.15;100222.86;104539;1260;69716;-66
2023/05/21 02:45:11;;;;;;;1.90;1.40;;;;;;;17.05;46.42;100227.52;104345;1267;72715;-65
2023/05/21 02:47:40;;;;;;;1.50;1.30;;;;;;;17.00;46.08;100222.16;104482;1267;61135;-66
2023/05/21 02:50:07;;;;;;;1.60;1.20;;;;;;;16.97;46.53;100222.48;104578;1255;61017;-65
2023/05/21 02:52:41;;;;;;;2.80;1.30;;;;;;;16.94;46.94;100225.14;104415;1261;73686;-66
2023/05/21 02:55:08;;;;;;;1.70;1.50;;;;;;;16.91;46.67;100220.55;104515;1254;69705;-66
2023/05/21 02:57:35;;;;;;;1.70;1.60;;;;;;;16.92;47.38;100222.95;104308;1271;72681;-66
2023/05/21 03:00:04;;;;;;;1.60;1.50;;;;;;;16.96;47.99;100224.67;104481;1269;62440;-65
2023/05/21 03:02:32;;;;;;;2.10;1.50;;;;;;;16.97;48.73;100228.72;104175;1261;60775;-65
2023/05/21 03:04:59;;;;;;;2.60;1.40;;;;;;;16.98;49.01;100233.27;104320;1273;73226;-65
2023/05/21 03:07:27;;;;;;;4.50;1.30;;;;;;;16.91;49.63;100234.34;104350;1260;69626;-66
2023/05/21 03:09:54;;;;;;;4.10;1.40;;;;;;;16.93;49.99;100234.42;104351;1259;72816;-65
2023/05/21 03:12:21;;;;;;;1.30;1.20;;;;;;;16.98;49.74;100231.81;104187;1276;62401;-64
2023/05/21 03:14:50;;;;;;;3.90;1.30;;;;;;;17.05;49.64;100229.23;104541;1261;59955;-66
2023/05/21 03:17:19;;;;;;;1.70;1.10;;;;;;;17.09;50.17;100230.95;104348;1260;73138;-64
2023/05/21 03:19:47;;;;;;;3.30;1.50;;;;;;;17.14;50.14;100230.52;104619;1263;70383;-64
2023/05/21 03:22:15;;;;;;;4.00;1.40;;;;;;;17.18;50.15;100233.80;104273;1254;72004;-63
2023/05/21 03:24:43;;;;;;;1.70;1.50;;;;;;;17.23;49.80;100233.51;104518;1255;59751;-62
2023/05/21 03:27:11;;;;;;;1.10;1.00;;;;;;;17.30;49.22;100238.20;104387;1254;60741;-62
2023/05/21 03:29:38;;;;;;;1.40;1.30;;;;;;;17.35;49.19;100237.91;104462;1260;73831;-63
2023/05/21 03:32:06;;;;;;;1.50;1.40;;;;;;;17.39;48.75;100231.97;104458;1269;70132;-62
2023/05/21 03:34:34;;;;;;;1.40;1.30;;;;;;;17.41;48.79;100235.56;104516;1267;73913;-63
2023/05/21 03:37:01;;;;;;;2.30;1.40;;;;;;;17.47;48.33;100239.48;104749;1253;60074;-63
2023/05/21 03:39:29;;;;;;;4.00;1.30;;;;;;;17.52;48.01;100245.02;104624;1252;60894;-63
2023/05/21 03:41:56;;;;;;;1.70;1.60;;;;;;;17.58;47.77;100244.13;104612;1256;72741;-63
2023/05/21 03:44:34;;;;;;;3.80;1.70;;;;;;;17.70;47.55;100241.20;104524;1255;70671;-63
2023/05/21 03:47:22;;;;;;;1.80;1.50;;;;;;;17.77;47.40;100239.02;104509;1255;72531;-63
2023/05/21 03:49:50;;;;;;;1.90;1.50;;;;;;;17.82;47.34;100240.29;104812;1253;61266;-63
2023/05/21 03:52:17;;;;;;;1.80;1.40;;;;;;;17.86;47.13;100240.42;104782;1259;61018;-63
2023/05/21 03:54:44;;;;;;;2.60;1.40;;;;;;;17.92;46.95;100240.41;104214;1259;72738;-63
2023/05/21 03:57:12;;;;;;;1.30;1.20;;;;;;;18.00;46.81;100241.98;104594;1253;71929;-64
2023/05/21 03:59:39;;;;;;;1.90;1.30;;;;;;;18.07;46.86;100242.09;104563;1259;72942;-63
2023/05/21 04:02:06;;;;;;;1.50;1.40;;;;;;;18.13;46.53;100235.71;104295;1260;60373;-63
2023/05/21 04:04:33;;;;;;;2.00;1.70;;;;;;;18.10;46.60;100234.42;104409;1254;60588;-63
2023/05/21 04:07:03;;;;;;;1.90;1.70;;;;;;;18.14;46.66;100232.64;104343;1253;74269;-64
2023/05/21 04:09:30;;;;;;;1.80;1.70;;;;;;;18.20;46.35;100236.28;104551;1253;69803;-65
2023/05/21 04:11:57;;;;;;;2.20;1.60;;;;;;;18.24;46.51;100241.19;104368;1260;73567;-63
2023/05/21 04:14:25;;;;;;;1.70;1.60;;;;;;;18.30;46.35;100244.32;104597;1253;60306;-64
2023/05/21 04:16:52;;;;;;;1.50;1.40;;;;;;;18.35;46.38;100247.52;104240;1275;61049;-67
2023/05/21 04:19:20;;;;;;;3.40;1.80;;;;;;;18.48;46.14;100243.13;104533;1269;73586;-65
2023/05/21 04:21:47;;;;;;;3.40;1.70;;;;;;;18.56;46.00;100241.40;104755;1258;71033;-64
2023/05/21 04:24:15;;;;;;;1.80;1.60;;;;;;;18.58;46.04;100234.86;104385;1268;73306;-64
2023/05/21 04:27:12;;;;;;;2.00;1.70;;;;;;;18.63;46.06;100233.83;104245;1261;61074;-63
2023/05/21 04:29:43;;;;;;;3.20;1.60;;;;;;;18.63;45.74;100233.77;104489;1252;60568;-65
2023/05/21 04:32:10;;;;;;;3.50;1.90;;;;;;;18.67;45.63;100231.42;104304;1269;75771;-64
2023/05/21 04:34:39;;;;;;;2.40;1.80;;;;;;;18.73;45.61;100230.35;104359;1257;69502;-62
2023/05/21 04:37:06;;;;;;;2.00;1.80;;;;;;;18.75;45.53;100225.94;104465;1253;73374;-62
2023/05/21 04:39:33;;;;;;;2.20;2.00;;;;;;;18.77;45.36;100222.39;104339;1254;60890;-64
2023/05/21 04:42:02;;;;;;;2.50;2.10;;;;;;;18.81;45.27;100226.39;104239;1266;60538;-63
2023/05/21 04:44:29;;;;;;;3.30;2.40;;;;;;;18.85;45.33;100228.80;104400;1255;76094;-62
2023/05/21 04:46:57;;;;;;;2.80;1.90;;;;;;;18.91;45.22;100226.30;104262;1253;72776;-65
2023/05/21 04:49:24;;;;;;;4.00;2.00;;;;;;;18.96;45.23;100226.45;104308;1269;75230;-63
2023/05/21 04:51:51;;;;;;;2.40;2.20;;;;;;;19.02;45.10;100224.67;104353;1257;60537;-62
2023/05/21 04:54:19;;;;;;;2.50;2.10;;;;;;;19.00;45.35;100224.58;104618;1253;61505;-62
2023/05/21 04:56:46;;;;;;;2.30;2.00;;;;;;;19.01;45.43;100222.25;104478;1258;73636;-62
2023/05/21 04:59:14;;;;;;;3.70;1.90;;;;;;;19.07;45.29;100225.20;104365;1259;69947;-62
2023/05/21 05:01:42;;;;;;;;;;;;;;;19.11;45.33;100222.63;104615;1257;72789;-62
2023/05/21 05:04:09;;;;;;;2.50;2.30;;;;;;;19.18;45.14;100218.19;104727;1254;62039;-62
2023/05/21 05:06:37;;;;;;;5.60;2.00;;;;;;;19.21;45.03;100220.98;104437;1257;60731;-63
2023/05/21 05:09:04;;;;;;;2.50;1.90;;;;;;;19.26;45.21;100218.02;104700;1254;74828;-63
2023/05/21 05:11:31;;;;;;;5.80;1.70;;;;;;;19.27;45.14;100223.77;104685;1258;69508;-63
2023/05/21 05:13:58;;;;;;;6.40;2.70;;;;;;;19.35;44.92;100227.86;104424;1256;72935;-63
2023/05/21 05:16:26;;;;;;;2.50;2.10;;;;;;;19.39;44.96;100229.15;104521;1253;61094;-62
2023/05/21 05:18:55;;;;;;;2.30;1.80;;;;;;;19.43;44.69;100230.69;104865;1251;60934;-62
2023/05/21 05:21:22;;;;;;;2.60;1.90;;;;;;;19.52;44.65;100230.06;104403;1256;74644;-66
2023/05/21 05:23:50;;;;;;;2.40;2.20;;;;;;;19.60;44.59;100224.66;104430;1263;70283;-61
2023/05/21 05:26:18;;;;;;;5.30;1.90;;;;;;;19.68;44.37;100227.66;104520;1254;73274;-61
2023/05/21 05:28:45;;;;;;;2.50;1.80;;;;;;;19.75;44.66;100223.79;104369;1254;61663;-63
2023/05/21 05:31:13;;;;;;;2.20;2.10;;;;;;;19.87;44.46;100225.12;104303;1259;62330;-65
2023/05/21 05:33:41;;;;;;;4.30;2.40;;;;;;;19.97;44.08;100230.06;104296;1271;73680;-65
2023/05/21 05:36:10;;;;;;;2.50;2.30;;;;;;;20.07;44.12;100227.06;104354;1258;69308;-64
2023/05/21 05:38:37;;;;;;;3.30;2.10;;;;;;;20.15;43.90;100232.84;104481;1261;72373;-64
2023/05/21 05:41:04;;;;;;;3.10;2.40;;;;;;;20.20;43.56;100230.34;104495;1266;60664;-67
2023/05/21 05:43:31;;;;;;;3.90;2.00;;;;;;;20.28;43.52;100226.89;104358;1267;61455;-62
2023/05/21 05:45:59;;;;;;;4.50;2.30;;;;;;;20.33;43.42;100223.13;104383;1253;73959;-63
2023/05/21 05:48:26;;;;;;;3.30;2.20;;;;;;;20.37;43.43;100223.20;104440;1257;70766;-64
2023/05/21 05:50:54;;;;;;;5.90;2.30;;;;;;;20.43;43.43;100221.18;104629;1253;72511;-65
2023/05/21 05:53:23;;;;;;;3.10;2.20;;;;;;;20.53;43.29;100218.65;104603;1255;62537;-64
2023/05/21 05:55:51;;;;;;;4.50;2.30;;;;;;;20.57;43.51;100221.89;104459;1251;60989;-65
2023/05/21 05:58:18;;;;;;;3.60;2.30;;;;;;;20.67;43.19;100225.23;104355;1258;74276;-62
2023/05/21 06:00:57;;;;;;;4.10;2.60;;;;;;;20.72;43.04;100219.38;104511;1267;69650;-66
2023/05/21 06:03:25;;;;;;;2.10;1.90;;;;;;;20.78;42.94;100220.71;104375;1253;73071;-63
2023/05/21 06:05:53;;;;;;;5.90;2.60;;;;;;;20.86;42.88;100223.80;104594;1268;60495;-63
2023/05/21 06:08:21;;;;;;;2.70;2.50;;;;;;;20.98;42.57;100224.73;104369;1253;62831;-64
2023/05/21 06:10:48;;;;;;;2.30;2.10;;;;;;;21.05;42.74;100224.85;104417;1260;73737;-66
2023/05/21 06:13:15;;;;;;;2.50;2.30;;;;;;;21.15;42.37;100219.62;104349;1254;70468;-65
2023/05/21 06:15:43;;;;;;;5.50;2.30;;;;;;;21.23;42.52;100222.25;104442;1254;73179;-63
2023/05/21 06:18:10;;;;;;;2.20;1.90;;;;;;;21.27;42.16;100218.30;104496;1256;63092;-63
2023/05/21 06:20:37;;;;;;;2.70;2.50;;;;;;;21.37;42.20;100214.91;104835;1251;61570;-65
2023/05/21 06:23:07;;;;;;;3.70;2.80;;;;;;;21.47;42.31;100215.41;104664;1256;74446;-63
2023/05/21 06:25:35;;;;;;;5.60;2.60;;;;;;;21.55;41.90;100210.61;104547;1256;68919;-63
2023/05/21 06:28:03;;;;;;;;;;;;;;;21.66;41.84;100205.50;104489;1253;72766;-63
2023/05/21 06:30:31;;;;;;;2.90;2.20;;;;;;;21.79;41.45;100201.42;104390;1257;60488;-65
2023/05/21 06:32:58;;;;;;;2.10;2.00;;;;;;;21.83;41.11;100197.89;104420;1255;60468;-63
2023/05/21 06:35:26;;;;;;;2.90;1.90;;;;;;;21.90;41.24;100201.25;104436;1263;73193;-63
2023/05/21 06:37:53;;;;;;;4.00;2.30;;;;;;;21.99;41.24;100196.38;104389;1270;70282;-65
2023/05/21 06:40:20;;;;;;;2.30;1.80;;;;;;;22.11;40.71;100194.50;104610;1259;72566;-63
2023/05/21 06:42:49;;;;;;;4.30;2.00;;;;;;;22.20;41.03;100190.39;104667;1257;61417;-63
2023/05/21 06:45:39;;;;;;;2.50;2.00;;;;;;;22.28;40.61;100184.20;104592;1269;60806;-64
2023/05/21 06:48:23;;;;;;;1.90;1.70;;;;;;;22.42;40.16;100182.91;104559;1263;74739;-64
2023/05/21 06:50:50;;;;;;;3.30;2.00;;;;;;;22.54;40.05;100182.42;104872;1253;70490;-64
2023/05/21 06:53:18;;;;;;;2.00;1.60;;;;;;;22.60;39.84;100181.73;104603;1257;74538;-63
2023/05/21 06:55:45;;;;;;;4.10;1.50;;;;;;;22.68;39.75;100182.98;104745;1258;62139;-63
2023/05/21 06:58:18;;;;;;;3.50;1.70;;;;;;;22.80;39.56;100181.99;104401;1252;61092;-66
2023/05/21 07:00:46;;;;;;;2.60;1.50;;;;;;;22.87;39.49;100180.33;104290;1257;74728;-64
2023/05/21 07:03:14;;;;;;;2.30;1.70;;;;;;;22.90;39.18;100176.67;104313;1252;70108;-63
2023/05/21 07:05:41;;;;;;;2.10;1.70;;;;;;;22.96;38.95;100172.06;104413;1258;73367;-64
2023/05/21 07:08:09;;;;;;;2.20;1.70;;;;;;;23.03;38.65;100174.81;104351;1259;61072;-63
2023/05/21 07:10:38;;;;;;;6.20;2.20;;;;;;;23.12;38.42;100174.42;104368;1269;60862;-65
2023/05/21 07:13:05;;;;;;;1.70;1.60;;;;;;;23.17;37.91;100170.41;104453;1256;74135;-65
2023/05/21 07:15:32;;;;;;;4.70;1.30;;;;;;;23.25;38.02;100167.80;104567;1255;70274;-65
2023/05/21 07:18:00;;;;;;;;;;;;;;;23.32;37.81;100163.05;104753;1254;73943;-68
2023/05/21 07:20:28;;;;;;;1.40;1.30;;;;;;;23.45;37.51;100164.38;104704;1252;60664;-65
2023/05/21 07:22:56;;;;;;;3.40;1.40;;;;;;;23.51;36.97;100158.86;104768;1254;61808;-63
2023/05/21 07:25:23;;;;;;;2.40;1.30;;;;;;;23.51;36.58;100153.69;104380;1257;74862;-64
2023/05/21 07:27:51;;;;;;;2.60;1.60;;;;;;;23.60;36.56;100145.20;104499;1273;70137;-64
2023/05/21 07:30:19;;;;;;;3.10;1.50;;;;;;;23.65;36.90;100146.13;104472;1262;71678;-64
2023/05/21 07:32:46;;;;;;;2.30;1.40;;;;;;;23.66;36.31;100150.13;104604;1257;61073;-64
2023/05/21 07:35:13;;;;;;;1.60;1.50;;;;;;;23.67;36.19;100152.20;104601;1257;61150;-68
2023/05/21 07:37:41;;;;;;;1.80;1.20;;;;;;;23.78;36.21;100147.37;104312;1253;76257;-65
2023/05/21 07:40:09;;;;;;;5.00;1.90;;;;;;;23.88;36.13;100146.66;104639;1258;70243;-64
2023/05/21 07:42:37;;;;;;;2.40;1.30;;;;;;;23.97;36.05;100140.06;104521;1255;72942;-64
2023/05/21 07:45:05;;;;;;;1.50;1.20;;;;;;;24.10;35.50;100142.71;104830;1254;60598;-64
2023/05/21 07:47:36;;;;;;;1.70;1.40;;;;;;;24.24;35.60;100145.14;104351;1257;63407;-63
2023/05/21 07:50:04;;;;;;;1.90;1.30;;;;;;;24.31;35.49;100147.17;104803;1256;73856;-64
2023/05/21 07:52:32;;;;;;;1.80;1.70;;;;;;;24.39;34.67;100142.47;104542;1252;70210;-65
2023/05/21 07:55:00;;;;;;;2.90;1.20;;;;;;;24.42;35.09;100140.58;104638;1259;71890;-63
2023/05/21 07:57:29;;;;;;;3.70;1.50;;;;;;;24.46;35.04;100143.48;104584;1252;61016;-64
2023/05/21 07:59:59;;;;;;;1.30;1.20;;;;;;;24.41;35.35;100140.89;104476;1253;61713;-63
2023/05/21 08:02:28;;;;;;;1.60;1.50;;;;;;;24.43;35.30;100148.02;104741;1253;74110;-64
2023/05/21 08:04:55;;;;;;;1.90;1.10;;;;;;;24.48;34.92;100144.02;104537;1253;69918;-65
2023/05/21 08:07:23;;;;;;;2.20;1.40;;;;;;;24.47;34.88;100142.81;104301;1253;75464;-64
2023/05/21 08:09:52;;;;;;;1.40;1.30;;;;;;;24.51;35.02;100141.97;104649;1261;61465;-66
2023/05/21 08:12:20;;;;;;;3.80;1.50;;;;;;;24.56;34.31;100136.31;104544;1257;63320;-64
2023/05/21 08:14:47;;;;;;;2.90;1.80;;;;;;;24.59;35.19;100141.39;104591;1259;73933;-65
2023/05/21 08:17:15;;;;;;;1.40;1.30;;;;;;;24.61;34.66;100135.13;104588;1264;70909;-63
2023/05/21 08:19:42;;;;;;;1.60;1.20;;;;;;;24.62;34.36;100129.30;104473;1270;72427;-63
2023/05/21 08:22:10;;;;;;;1.40;1.30;;;;;;;24.62;34.89;100129.45;104718;1253;61192;-63
2023/05/21 08:24:39;;;;;;;4.50;1.50;;;;;;;24.68;34.58;100125.89;104669;1254;60555;-63
2023/05/21 08:27:07;;;;;;;4.10;1.60;;;;;;;24.67;34.57;100126.70;104525;1271;74590;-64
2023/05/21 08:29:34;;;;;;;4.80;1.90;;;;;;;24.75;34.10;100130.88;104529;1265;70355;-63
2023/05/21 08:32:01;;;;;;;3.00;1.30;;;;;;;24.88;34.03;100128.07;104493;1253;73684;-63
2023/05/21 08:34:29;;;;;;;1.80;1.50;;;;;;;24.91;33.84;100129.05;104372;1253;60907;-63
2023/05/21 08:37:06;;;;;;;3.10;1.60;;;;;;;24.95;33.73;100126.86;104620;1253;60634;-64
2023/05/21 08:40:12;;;;;;;1.60;1.50;;;;;;;24.97;33.54;100121.67;104445;1259;76346;-68
2023/05/21 08:42:48;;;;;;;1.40;1.30;;;;;;;25.07;33.84;100116.45;103876;1257;69508;-67
2023/05/21 08:45:20;;;;;;;1.60;1.40;;;;;;;25.17;33.56;100110.25;104240;1260;73906;-67
2023/05/21 08:47:54;;;;;;;2.30;1.70;;;;;;;25.27;33.78;100102.98;104300;1275;61479;-66
2023/05/21 08:50:22;;;;;;;1.60;1.50;;;;;;;25.36;33.43;100099.70;104293;1270;60662;-68
2023/05/21 08:52:50;;;;;;;1.90;1.50;;;;;;;25.42;33.48;100102.80;104372;1260;73774;-68
2023/05/21 08:55:17;;;;;;;3.30;2.00;;;;;;;25.28;33.38;100108.82;104310;1257;69902;-67
2023/05/21 08:57:44;;;;;;;1.80;1.60;;;;;;;25.20;32.97;100096.25;104384;1258;71853;-64
2023/05/21 09:00:13;;;;;;;2.20;1.80;;;;;;;25.20;33.45;100091.51;104458;1266;61184;-65
2023/05/21 09:02:42;;;;;;;;;;;;;;;25.35;33.59;100094.90;104433;1262;63211;-65
2023/05/21 09:05:10;;;;;;;3.90;1.70;;;;;;;25.61;33.20;100099.31;104341;1257;74344;-65
2023/05/21 09:07:50;;;;;;;3.90;2.40;;;;;;;25.64;32.92;100097.77;104393;1253;69826;-65
2023/05/21 09:10:44;;;;;;;1.90;1.80;;;;;;;25.73;32.83;100094.34;104442;1258;73071;-66
2023/05/21 09:13:12;;;;;;;3.00;1.80;;;;;;;25.79;32.97;100093.39;104382;1254;60607;-66
2023/05/21 09:15:40;;;;;;;5.00;1.60;;;;;;;25.88;32.88;100095.41;104483;1258;61389;-66
2023/05/21 09:18:08;;;;;;;3.80;1.40;;;;;;;26.03;32.76;100082.30;104664;1263;73346;-65
2023/05/21 09:20:44;;;;;;;2.90;1.40;;;;;;;26.14;33.13;100080.30;104532;1257;70274;-66
2023/05/21 09:23:15;;;;;;;7.30;1.90;;;;;;;26.26;32.83;100080.30;104642;1257;72434;-66
2023/05/21 09:25:47;;;;;;;3.30;1.40;;;;;;;26.35;32.81;100082.79;104646;1253;60796;-64
2023/05/21 09:28:21;;;;;;;1.70;1.60;;;;;;;26.37;32.38;100087.11;104390;1256;60622;-64
2023/05/21 09:30:50;;;;;;;6.20;1.50;;;;;;;26.25;32.01;100080.56;104570;1258;73411;-64
2023/05/21 09:33:25;;;;;;;3.10;1.50;;;;;;;26.28;32.26;100075.45;104837;1259;70794;-64
2023/05/21 09:35:52;;;;;;;1.20;1.10;;;;;;;26.35;31.85;100079.33;104749;1256;74728;-66
2023/05/21 09:38:23;;;;;;;1.80;1.60;;;;;;;26.42;31.94;100070.07;104547;1256;60790;-66
2023/05/21 09:40:53;;;;;;;8.90;1.40;;;;;;;26.46;31.67;100060.89;105066;1256;60485;-66
2023/05/21 09:43:21;;;;;;;1.60;1.50;;;;;;;26.48;31.65;100062.83;105418;1253;74527;-67
2023/05/21 09:45:50;;;;;;;4.70;2.00;;;;;;;26.49;31.31;100056.70;108404;1253;69538;-68
2023/05/21 09:48:43;;;;;;;2.50;1.50;;;;;;;26.40;31.53;100066.45;105661;1253;72790;-68
2023/05/21 09:51:15;;;;;;;1.40;1.30;;;;;;;26.36;31.91;100061.08;104865;1253;62673;-68
2023/05/21 09:54:02;;;;;;;3.70;1.30;;;;;;;26.45;31.84;100058.42;104352;1254;61134;-67
2023/05/21 09:56:30;;;;;;;3.50;1.60;;;;;;;26.55;31.59;100062.55;105322;1253;74818;-67
2023/05/21 09:59:00;;;;;;;4.00;1.70;;;;;;;26.57;31.69;100060.27;105101;1256;71055;-67
2023/05/21 10:01:27;;;;;;;4.50;2.00;;;;;;;26.60;31.30;100055.23;104633;1259;74228;-63
2023/05/21 10:03:56;;;;;;;3.00;1.40;;;;;;;26.64;31.32;100060.61;104621;1254;60744;-62
2023/05/21 10:06:25;;;;;;;1.60;1.50;;;;;;;26.67;31.17;100063.23;105047;1253;60673;-66
2023/05/21 10:08:55;;;;;;;5.40;1.60;;;;;;;26.69;30.95;100058.98;105110;1253;74515;-63
2023/05/21 10:11:25;;;;;;;2.30;1.30;;;;;;;26.70;31.02;100052.04;104432;1256;69042;-65
2023/05/21 10:13:59;;;;;;;2.90;1.50;;;;;;;26.79;31.13;100049.56;104707;1256;75041;-63
2023/05/21 10:16:27;;;;;;;2.80;1.40;;;;;;;26.91;31.07;100043.02;104812;1254;61985;-64
2023/05/21 10:18:54;;;;;;;3.10;2.10;;;;;;;26.94;30.88;100045.45;104530;1253;62872;-64
2023/05/21 10:21:22;;;;;;;10.30;1.70;;;;;;;26.96;30.95;100051.58;104731;1253;73097;-65
2023/05/21 10:23:50;;;;;;;1.80;1.50;;;;;;;26.97;30.67;100046.95;104363;1273;70760;-63
2023/05/21 10:26:18;;;;;;;4.60;1.70;;;;;;;26.97;30.02;100048.20;104406;1258;73001;-63
2023/05/21 10:28:45;;;;;;;9.90;1.80;;;;;;;27.01;29.86;100042.69;104724;1268;62907;-64
2023/05/21 10:31:12;;;;;;;1.50;1.40;;;;;;;26.96;30.00;100043.44;104943;1255;60560;-67
2023/05/21 10:33:40;;;;;;;1.90;1.30;;;;;;;26.95;30.02;100034.53;104562;1257;73725;-66
2023/05/21 10:36:08;;;;;;;5.20;1.60;;;;;;;26.97;30.27;100039.54;104900;1253;70084;-65
2023/05/21 10:38:36;;;;;;;2.80;1.60;;;;;;;26.93;30.19;100044.41;104852;1253;74451;-63
2023/05/21 10:41:06;;;;;;;;;;;;;;;26.97;29.79;100041.91;104571;1253;60566;-65
2023/05/21 10:44:03;;;;;;;5.00;1.50;;;;;;;27.00;29.84;100042.59;105914;1253;61031;-64
2023/05/21 10:46:46;;;;;;;7.00;1.50;;;;;;;27.08;29.73;100052.00;108338;1253;74016;-67
2023/05/21 10:49:32;;;;;;;2.80;1.40;;;;;;;27.24;30.04;100048.21;105572;1254;73821;-65
2023/05/21 10:52:44;;;;;;;2.30;1.40;;;;;;;27.41;29.70;100046.05;105440;1252;72661;-65
2023/05/21 10:55:15;;;;;;;4.60;1.60;;;;;;;27.49;29.61;100050.90;104607;1264;60540;-64
2023/05/21 10:58:10;;;;;;;4.70;1.70;;;;;;;27.41;29.66;100051.80;104603;1253;60891;-64
2023/05/21 11:00:37;;;;;;;1.70;1.60;;;;;;;27.41;29.33;100042.14;104520;1259;74389;-65
2023/05/21 11:03:05;;;;;;;3.50;1.30;;;;;;;27.32;29.38;100041.04;104707;1257;73831;-65
2023/05/21 11:05:41;;;;;;;3.60;1.60;;;;;;;27.30;29.55;100038.90;104543;1253;72892;-65
2023/05/21 11:08:37;;;;;;;1.80;1.40;;;;;;;27.42;29.74;100043.98;104627;1257;60665;-66
2023/05/21 11:11:04;;;;;;;1.80;1.40;;;;;;;27.67;29.65;100045.59;104800;1256;60488;-65
2023/05/21 11:13:47;;;;;;;1.50;1.30;;;;;;;27.81;29.05;100038.50;104787;1263;74498;-66
2023/05/21 11:16:15;;;;;;;2.40;1.50;;;;;;;27.97;28.98;100041.29;104432;1259;70887;-64
2023/05/21 11:18:46;;;;;;;2.00;1.80;;;;;;;28.02;29.05;100043.81;104611;1259;73365;-65
2023/05/21 11:21:17;;;;;;;2.00;1.80;;;;;;;28.09;28.68;100041.83;104564;1253;60703;-61
2023/05/21 11:23:51;;;;;;;2.40;1.60;;;;;;;28.11;29.07;100042.98;104593;1257;60460;-62
2023/05/21 11:26:22;;;;;;;1.80;1.70;;;;;;;28.19;28.81;100031.98;104641;1257;74140;-63
2023/05/21 11:29:02;;;;;;;1.70;1.40;;;;;;;28.31;28.70;100044.20;107689;1252;71103;-62
2023/05/21 11:31:36;;;;;;;2.20;2.00;;;;;;;28.36;28.39;100043.66;107349;1256;73399;-63